createdAt,value
2018-03-15T00:01:22.981Z,52.67
2018-03-15T00:03:51.666Z,53.00
2018-03-15T00:06:20.353Z,52.63
2018-03-15T00:08:48.979Z,52.83
2018-03-15T00:11:18.493Z,52.03
2018-03-15T00:13:47.945Z,52.78
2018-03-15T00:16:16.494Z,53.61
2018-03-15T00:18:45.217Z,53.13
2018-03-15T00:21:13.893Z,51.72
2018-03-15T00:23:42.589Z,50.92
2018-03-15T00:26:11.585Z,52.18
2018-03-15T00:28:40.168Z,52.32
2018-03-15T00:31:08.733Z,53.60
2018-03-15T00:33:37.333Z,53.53
2018-03-15T00:36:05.886Z,52.77
2018-03-15T00:38:34.596Z,52.67
2018-03-15T00:41:03.683Z,52.02
2018-03-15T00:43:32.376Z,52.17
2018-03-15T00:46:01.069Z,52.76
2018-03-15T00:48:29.742Z,53.13
2018-03-15T00:50:58.440Z,53.71
2018-03-15T00:53:27.125Z,53.99
2018-03-15T00:55:55.911Z,53.64
2018-03-15T00:58:24.488Z,53.64
2018-03-15T01:00:53.283Z,53.68
2018-03-15T01:03:21.968Z,53.50
2018-03-15T01:05:50.590Z,53.28
2018-03-15T01:08:20.052Z,53.02
2018-03-15T01:10:49.045Z,53.22
2018-03-15T01:13:17.694Z,53.76
2018-03-15T01:15:46.424Z,53.54
2018-03-15T01:18:15.029Z,52.68
2018-03-15T01:20:44.443Z,53.25
2018-03-15T01:23:13.913Z,53.15
2018-03-15T01:25:42.696Z,53.62
2018-03-15T01:28:11.328Z,53.29
2018-03-15T01:30:39.917Z,53.79
2018-03-15T01:33:09.479Z,53.70
2018-03-15T01:35:38.164Z,52.91
2018-03-15T01:38:06.848Z,53.12
2018-03-15T01:40:35.732Z,53.34
2018-03-15T01:43:04.383Z,53.07
2018-03-15T01:45:33.104Z,53.52
2018-03-15T01:48:02.043Z,53.39
2018-03-15T01:50:31.350Z,54.40
2018-03-15T01:52:59.898Z,54.51
2018-03-15T01:55:28.717Z,55.34
2018-03-15T01:57:58.052Z,55.12
2018-03-15T02:00:26.604Z,55.38
2018-03-15T02:02:56.164Z,54.63
2018-03-15T02:05:24.851Z,54.82
2018-03-15T02:07:53.536Z,55.43
2018-03-15T02:10:22.320Z,55.05
2018-03-15T02:12:51.007Z,55.94
2018-03-15T02:15:19.699Z,54.97
2018-03-15T02:17:48.433Z,55.60
2018-03-15T02:20:17.165Z,55.84
2018-03-15T02:22:45.708Z,55.51
2018-03-15T02:25:14.638Z,55.40
2018-03-15T02:27:43.181Z,56.20
2018-03-15T02:30:11.730Z,56.60
2018-03-15T02:32:40.335Z,56.67
2018-03-15T02:35:09.689Z,56.76
2018-03-15T02:37:39.007Z,56.61
2018-03-15T02:40:09.574Z,56.62
2018-03-15T02:42:38.122Z,56.53
2018-03-15T02:45:06.692Z,55.84
2018-03-15T02:47:35.288Z,56.44
2018-03-15T02:50:03.861Z,56.77
2018-03-15T02:52:32.418Z,57.89
2018-03-15T02:55:01.223Z,58.19
2018-03-15T02:57:29.775Z,57.04
2018-03-15T02:59:58.325Z,56.12
2018-03-15T03:02:27.890Z,56.43
2018-03-15T03:04:56.442Z,57.06
2018-03-15T03:07:24.988Z,57.31
2018-03-15T03:09:53.592Z,57.35
2018-03-15T03:12:22.907Z,57.25
2018-03-15T03:14:51.452Z,57.05
2018-03-15T03:17:20.056Z,57.65
2018-03-15T03:19:49.373Z,57.46
2018-03-15T03:22:17.920Z,57.42
2018-03-15T03:24:47.345Z,56.92
2018-03-15T03:27:16.661Z,56.59
2018-03-15T03:29:45.193Z,56.05
2018-03-15T03:32:13.867Z,57.00
2018-03-15T03:34:42.420Z,56.54
2018-03-15T03:37:10.965Z,56.83
2018-03-15T03:39:40.328Z,56.96
2018-03-15T03:42:08.877Z,55.66
2018-03-15T03:44:37.790Z,56.18
2018-03-15T03:47:06.496Z,56.36
2018-03-15T03:49:35.041Z,55.21
2018-03-15T03:52:03.593Z,56.00
2018-03-15T03:54:32.965Z,55.77
2018-03-15T03:57:01.512Z,56.37
2018-03-15T03:59:30.055Z,55.98
2018-03-15T04:01:59.431Z,55.70
2018-03-15T04:04:27.976Z,55.83
2018-03-15T04:06:56.533Z,55.92
2018-03-15T04:09:26.096Z,55.53
2018-03-15T04:11:54.651Z,55.34
2018-03-15T04:14:23.197Z,54.52
2018-03-15T04:16:52.866Z,55.09
2018-03-15T04:19:21.416Z,55.43
2018-03-15T04:21:50.041Z,54.78
2018-03-15T04:24:18.639Z,54.86
2018-03-15T04:26:47.193Z,55.01
2018-03-15T04:29:15.740Z,54.53
2018-03-15T04:31:45.108Z,53.66
2018-03-15T04:34:13.664Z,54.32
2018-03-15T04:36:42.208Z,54.19
2018-03-15T04:39:10.860Z,53.89
2018-03-15T04:41:39.416Z,53.84
2018-03-15T04:44:07.965Z,52.22
2018-03-15T04:46:36.661Z,51.97
2018-03-15T04:49:05.222Z,49.79
2018-03-15T04:51:34.568Z,50.00
2018-03-15T04:54:03.364Z,47.97
2018-03-15T04:56:31.914Z,48.08
2018-03-15T04:59:00.633Z,50.30
2018-03-15T05:01:29.522Z,50.23
2018-03-15T05:03:58.213Z,48.71
2018-03-15T05:06:26.765Z,48.23
2018-03-15T05:08:55.379Z,47.97
2018-03-15T05:11:24.063Z,46.88
2018-03-15T05:13:52.750Z,50.47
2018-03-15T05:16:21.533Z,49.71
2018-03-15T05:18:50.219Z,50.26
2018-03-15T05:21:18.851Z,49.05
2018-03-15T05:23:48.320Z,48.47
2018-03-15T05:26:17.044Z,47.46
2018-03-15T05:28:46.504Z,43.67
2018-03-15T05:31:15.707Z,39.90
2018-03-15T05:33:45.056Z,38.69
2018-03-15T05:36:13.736Z,39.46
2018-03-15T05:38:42.679Z,39.12
2018-03-15T05:41:11.771Z,41.50
2018-03-15T05:43:40.665Z,41.22
2018-03-15T05:46:09.706Z,40.79
2018-03-15T05:48:39.119Z,34.91
2018-03-15T05:51:07.851Z,32.37
2018-03-15T05:53:36.585Z,32.00
2018-03-15T05:56:06.004Z,31.54
2018-03-15T05:58:34.720Z,31.87
2018-03-15T06:01:03.664Z,32.92
2018-03-15T06:03:33.123Z,36.32
2018-03-15T06:06:01.706Z,38.01
2018-03-15T06:08:30.485Z,36.71
2018-03-15T06:10:59.077Z,34.31
2018-03-15T06:13:27.633Z,37.30
2018-03-15T06:15:56.236Z,39.57
2018-03-15T06:18:25.552Z,37.61
2018-03-15T06:20:54.109Z,38.94
2018-03-15T06:23:23.223Z,40.34
2018-03-15T06:25:51.776Z,39.46
2018-03-15T06:28:20.348Z,41.31
2018-03-15T06:30:48.967Z,40.69
2018-03-15T06:33:17.870Z,40.79
2018-03-15T06:35:46.421Z,41.34
2018-03-15T06:38:15.230Z,41.46
2018-03-15T06:40:43.781Z,40.81
2018-03-15T06:43:12.341Z,43.45
2018-03-15T06:45:41.949Z,44.20
2018-03-15T06:48:11.267Z,43.18
2018-03-15T06:50:39.820Z,43.01
2018-03-15T06:53:09.603Z,41.28
2018-03-15T06:55:38.152Z,42.18
2018-03-15T06:58:06.707Z,43.63
2018-03-15T07:00:35.312Z,44.79
2018-03-15T07:03:03.882Z,44.86
2018-03-15T07:05:32.447Z,43.61
2018-03-15T07:08:01.356Z,42.33
2018-03-15T07:10:29.923Z,42.95
2018-03-15T07:12:58.548Z,42.56
2018-03-15T07:15:27.915Z,43.58
2018-03-15T07:17:56.460Z,43.27
2018-03-15T07:20:25.083Z,43.58
2018-03-15T07:22:54.013Z,41.22
2018-03-15T07:25:22.560Z,42.44
2018-03-15T07:27:51.108Z,42.93
2018-03-15T07:30:20.028Z,42.13
2018-03-15T07:32:48.587Z,41.44
2018-03-15T07:35:17.297Z,41.30
2018-03-15T07:37:45.937Z,41.89
2018-03-15T07:40:14.488Z,40.95
2018-03-15T07:42:43.809Z,41.01
2018-03-15T07:45:12.820Z,42.02
2018-03-15T07:47:41.376Z,41.55
2018-03-15T07:50:10.701Z,41.84
2018-03-15T07:52:39.388Z,42.76
2018-03-15T07:55:07.940Z,41.14
2018-03-15T07:57:37.420Z,41.25
2018-03-15T08:00:06.063Z,41.90
2018-03-15T08:02:34.723Z,40.94
2018-03-15T08:05:04.082Z,40.26
2018-03-15T08:07:33.891Z,41.21
2018-03-15T08:10:02.440Z,41.68
2018-03-15T08:12:31.268Z,41.26
2018-03-15T08:14:59.954Z,41.82
2018-03-15T08:17:28.761Z,41.02
2018-03-15T08:19:57.326Z,41.52
2018-03-15T08:22:26.006Z,39.86
2018-03-15T08:24:54.573Z,39.61
2018-03-15T08:27:23.137Z,41.06
2018-03-15T08:29:51.753Z,40.05
2018-03-15T08:32:21.116Z,41.59
2018-03-15T08:34:49.664Z,41.42
2018-03-15T08:37:18.272Z,40.37
2018-03-15T08:39:47.236Z,39.73
2018-03-15T08:42:15.800Z,41.91
2018-03-15T08:44:44.688Z,40.08
2018-03-15T08:47:13.248Z,40.48
2018-03-15T08:49:41.800Z,38.48
2018-03-15T08:52:11.270Z,38.33
2018-03-15T08:54:39.949Z,37.48
2018-03-15T08:57:08.514Z,36.72
2018-03-15T08:59:37.112Z,37.06
2018-03-15T09:02:06.633Z,35.56
2018-03-15T09:04:35.512Z,35.64
2018-03-15T09:07:03.928Z,36.12
2018-03-15T09:09:33.240Z,36.04
2018-03-15T09:12:02.788Z,34.09
2018-03-15T09:14:31.571Z,32.82
2018-03-15T09:17:00.195Z,29.78
2018-03-15T09:19:29.520Z,32.56
2018-03-15T09:21:58.117Z,31.73
2018-03-15T09:24:26.674Z,32.67
2018-03-15T09:26:55.989Z,33.22
2018-03-15T09:29:25.462Z,33.07
2018-03-15T09:31:54.796Z,32.44
2018-03-15T09:34:23.417Z,32.60
2018-03-15T09:36:52.035Z,32.81
2018-03-15T09:39:21.377Z,31.58
2018-03-15T09:41:50.309Z,31.86
2018-03-15T09:44:19.727Z,29.81
2018-03-15T09:46:48.312Z,28.79
2018-03-15T09:49:17.660Z,30.82
2018-03-15T09:51:46.480Z,29.83
2018-03-15T09:54:15.829Z,27.48
2018-03-15T09:56:44.414Z,30.15
2018-03-15T09:59:13.451Z,28.20
2018-03-15T10:01:42.380Z,28.25
2018-03-15T10:04:11.767Z,28.30
2018-03-15T10:06:40.638Z,28.42
2018-03-15T10:09:09.226Z,29.83
2018-03-15T10:11:38.577Z,27.98
2018-03-15T10:14:07.220Z,27.40
2018-03-15T10:16:35.819Z,25.95
2018-03-15T10:19:04.417Z,29.13
2018-03-15T10:21:33.148Z,26.62
2018-03-15T10:24:02.487Z,27.65
2018-03-15T10:26:31.212Z,28.96
2018-03-15T10:29:00.180Z,28.23
2018-03-15T10:31:28.896Z,28.04
2018-03-15T10:33:58.390Z,27.23
2018-03-15T10:36:27.134Z,26.86
2018-03-15T10:38:55.875Z,27.63
2018-03-15T10:41:25.383Z,26.42
2018-03-15T10:43:54.114Z,27.34
2018-03-15T10:46:22.693Z,25.81
2018-03-15T10:48:51.440Z,29.46
2018-03-15T10:51:20.284Z,26.25
2018-03-15T10:53:48.986Z,26.33
2018-03-15T10:56:18.482Z,26.08
2018-03-15T10:58:47.522Z,25.13
2018-03-15T11:01:28.056Z,25.11
2018-03-15T11:04:15.532Z,24.79
2018-03-15T11:07:04.633Z,25.00
2018-03-15T11:09:33.416Z,25.90
2018-03-15T11:12:01.995Z,24.99
2018-03-15T11:14:30.578Z,26.94
2018-03-15T11:16:59.565Z,24.01
2018-03-15T11:19:28.255Z,25.66
2018-03-15T11:21:56.857Z,25.16
2018-03-15T11:24:25.473Z,25.29
2018-03-15T11:26:54.056Z,25.12
2018-03-15T11:29:22.637Z,23.40
2018-03-15T11:31:51.472Z,21.56
2018-03-15T11:34:20.046Z,23.11
2018-03-15T11:36:48.637Z,24.21
2018-03-15T11:39:17.264Z,24.44
2018-03-15T11:41:45.852Z,24.50
2018-03-15T11:44:14.419Z,25.24
2018-03-15T11:46:43.817Z,24.10
2018-03-15T11:49:13.173Z,23.88
2018-03-15T11:51:41.781Z,23.98
2018-03-15T11:54:10.676Z,24.81
2018-03-15T11:56:40.182Z,23.79
2018-03-15T11:59:08.762Z,24.07
2018-03-15T12:01:38.256Z,23.27
2018-03-15T12:04:06.784Z,23.67
2018-03-15T12:06:35.372Z,23.71
2018-03-15T12:09:04.959Z,24.62
2018-03-15T12:11:34.336Z,23.02
2018-03-15T12:14:02.923Z,24.28
2018-03-15T12:16:31.819Z,24.41
2018-03-15T12:19:00.373Z,22.56
2018-03-15T12:21:28.932Z,22.36
2018-03-15T12:23:57.536Z,25.55
2018-03-15T12:26:26.075Z,19.78
2018-03-15T12:28:54.789Z,23.15
2018-03-15T12:31:24.296Z,21.59
2018-03-15T12:33:52.848Z,23.18
2018-03-15T12:36:21.512Z,22.79
2018-03-15T12:38:50.547Z,22.19
2018-03-15T12:41:19.909Z,22.63
2018-03-15T12:43:48.491Z,24.61
2018-03-15T12:46:17.256Z,22.27
2018-03-15T12:48:45.809Z,22.65
2018-03-15T12:51:15.125Z,24.50
2018-03-15T12:53:44.048Z,23.95
2018-03-15T12:56:12.636Z,23.73
2018-03-15T12:58:41.188Z,23.13
2018-03-15T13:01:10.245Z,22.34
2018-03-15T13:03:39.561Z,21.75
2018-03-15T13:06:08.876Z,24.54
2018-03-15T13:08:37.561Z,22.40
2018-03-15T13:11:06.108Z,23.65
2018-03-15T13:13:34.660Z,22.67
2018-03-15T13:16:03.445Z,23.62
2018-03-15T13:18:31.989Z,23.59
2018-03-15T13:21:00.544Z,22.82
2018-03-15T13:23:29.648Z,24.61
2018-03-15T13:25:58.966Z,21.32
2018-03-15T13:28:27.521Z,23.94
2018-03-15T13:30:56.903Z,23.70
2018-03-15T13:33:25.474Z,23.11
2018-03-15T13:35:54.015Z,22.78
2018-03-15T13:38:22.613Z,21.49
2018-03-15T13:40:51.157Z,20.81
2018-03-15T13:43:20.476Z,24.21
2018-03-15T13:45:49.181Z,23.12
2018-03-15T13:48:17.732Z,24.46
2018-03-15T13:50:47.053Z,24.20
2018-03-15T13:53:15.664Z,21.44
2018-03-15T13:55:44.213Z,22.36
2018-03-15T13:58:12.777Z,23.91
2018-03-15T14:00:42.146Z,25.22
2018-03-15T14:03:10.725Z,24.12
2018-03-15T14:05:39.276Z,24.57
2018-03-15T14:08:08.198Z,23.33
2018-03-15T14:10:36.752Z,21.62
2018-03-15T14:13:05.321Z,22.46
2018-03-15T14:15:33.944Z,23.96
2018-03-15T14:18:02.495Z,24.00
2018-03-15T14:20:31.226Z,24.77
2018-03-15T14:23:00.220Z,24.11
2018-03-15T14:25:28.904Z,24.71
2018-03-15T14:27:57.544Z,24.36
2018-03-15T14:30:26.277Z,24.77
2018-03-15T14:32:54.853Z,23.58
2018-03-15T14:35:23.392Z,25.74
2018-03-15T14:37:51.988Z,24.69
2018-03-15T14:40:20.711Z,24.06
2018-03-15T14:42:49.256Z,24.81
2018-03-15T14:45:17.902Z,26.71
2018-03-15T14:47:47.220Z,27.28
2018-03-15T14:50:16.533Z,28.18
2018-03-15T14:52:45.259Z,29.20
2018-03-15T14:55:13.801Z,30.66
2018-03-15T14:57:42.351Z,30.11
2018-03-15T15:00:10.956Z,29.96
2018-03-15T15:02:40.280Z,29.70
2018-03-15T15:05:08.832Z,29.57
2018-03-15T15:07:38.285Z,28.83
2018-03-15T15:10:06.828Z,30.42
2018-03-15T15:12:36.144Z,27.25
2018-03-15T15:15:04.888Z,29.77
2018-03-15T15:17:33.464Z,30.29
2018-03-15T15:20:02.020Z,31.19
2018-03-15T15:22:30.729Z,30.91
2018-03-15T15:25:00.633Z,31.27
2018-03-15T15:27:29.236Z,32.24
2018-03-15T15:29:57.828Z,32.63
2018-03-15T15:32:26.381Z,32.02
2018-03-15T15:34:54.928Z,39.04
2018-03-15T15:37:23.524Z,38.25
2018-03-15T15:39:52.073Z,36.67
2018-03-15T15:42:21.393Z,36.07
2018-03-15T15:44:50.024Z,35.60
2018-03-15T15:47:18.599Z,36.06
2018-03-15T15:49:47.298Z,36.97
2018-03-15T15:52:15.912Z,37.81
2018-03-15T15:54:45.375Z,38.50
2018-03-15T15:57:13.962Z,38.75
2018-03-15T15:59:42.945Z,38.89
2018-03-15T16:02:11.494Z,39.15
2018-03-15T16:04:40.045Z,38.24
2018-03-15T16:07:09.420Z,37.56
2018-03-15T16:09:37.964Z,37.41
2018-03-15T16:12:06.514Z,36.84
2018-03-15T16:14:36.028Z,37.64
2018-03-15T16:17:05.489Z,38.22
2018-03-15T16:19:34.088Z,38.00
2018-03-15T16:22:02.729Z,39.26
2018-03-15T16:24:31.348Z,40.20
2018-03-15T16:26:59.970Z,40.26
2018-03-15T16:29:29.640Z,40.75
2018-03-15T16:31:58.330Z,41.35
2018-03-15T16:34:26.867Z,41.29
2018-03-15T16:36:55.513Z,41.06
2018-03-15T16:39:24.838Z,41.28
2018-03-15T16:41:54.249Z,41.24
2018-03-15T16:44:23.182Z,41.87
2018-03-15T16:46:51.867Z,42.25
2018-03-15T16:49:20.453Z,44.78
2018-03-15T16:51:49.544Z,44.56
2018-03-15T16:54:18.093Z,43.98
2018-03-15T16:56:46.667Z,43.91
2018-03-15T16:59:15.350Z,45.39
2018-03-15T17:01:44.805Z,45.02
2018-03-15T17:04:13.588Z,44.49
2018-03-15T17:06:42.532Z,44.28
2018-03-15T17:09:11.991Z,43.85
2018-03-15T17:11:40.664Z,44.81
2018-03-15T17:14:09.736Z,44.04
2018-03-15T17:16:38.457Z,45.23
2018-03-15T17:19:07.239Z,46.17
2018-03-15T17:21:35.940Z,47.04
2018-03-15T17:24:04.707Z,47.39
2018-03-15T17:26:33.405Z,47.79
2018-03-15T17:29:02.289Z,47.36
2018-03-15T17:31:30.976Z,46.88
2018-03-15T17:33:59.661Z,47.44
2018-03-15T17:36:28.395Z,48.25
2018-03-15T17:38:58.715Z,48.91
2018-03-15T17:41:28.181Z,50.45
2018-03-15T17:43:56.971Z,51.53
2018-03-15T17:46:25.545Z,50.39
2018-03-15T17:48:54.343Z,47.85
2018-03-15T17:51:24.109Z,49.12
2018-03-15T17:53:52.836Z,48.59
2018-03-15T17:56:21.518Z,48.98
2018-03-15T17:58:50.410Z,48.52
2018-03-15T18:01:19.099Z,48.37
2018-03-15T18:03:47.887Z,48.22
2018-03-15T18:06:16.864Z,47.82
2018-03-15T18:08:45.564Z,47.82
2018-03-15T18:11:14.297Z,48.14
2018-03-15T18:13:43.757Z,47.16
2018-03-15T18:16:13.326Z,46.87
2018-03-15T18:18:42.762Z,46.32
2018-03-15T18:21:11.795Z,47.19
2018-03-15T18:23:40.444Z,45.32
2018-03-15T18:26:09.126Z,45.76
2018-03-15T18:28:37.923Z,46.15
2018-03-15T18:31:06.490Z,46.15
2018-03-15T18:33:35.137Z,47.21
2018-03-15T18:36:03.772Z,46.58
2018-03-15T18:38:32.456Z,48.05
2018-03-15T18:41:01.142Z,47.98
2018-03-15T18:43:29.910Z,45.77
2018-03-15T18:45:58.612Z,46.46
2018-03-15T18:48:27.245Z,46.48
2018-03-15T18:50:56.714Z,47.00
2018-03-15T18:53:25.277Z,47.35
2018-03-15T18:55:53.969Z,46.29
2018-03-15T18:58:22.862Z,44.87
2018-03-15T19:00:51.536Z,44.82
2018-03-15T19:03:20.236Z,45.06
2018-03-15T19:05:49.092Z,44.72
2018-03-15T19:08:17.815Z,44.83
2018-03-15T19:10:46.455Z,44.49
2018-03-15T19:13:15.186Z,46.56
2018-03-15T19:15:43.873Z,45.42
2018-03-15T19:18:12.559Z,45.18
2018-03-15T19:20:41.156Z,46.57
2018-03-15T19:23:09.869Z,47.24
2018-03-15T19:25:39.329Z,44.51
2018-03-15T19:28:08.322Z,44.03
2018-03-15T19:30:37.007Z,43.25
2018-03-15T19:33:05.792Z,43.55
2018-03-15T19:35:34.891Z,43.77
2018-03-15T19:38:03.580Z,44.55
2018-03-15T19:40:32.158Z,45.20
2018-03-15T19:43:00.889Z,45.16
2018-03-15T19:45:30.352Z,45.74
2018-03-15T19:47:58.929Z,47.62
2018-03-15T19:50:28.347Z,47.11
2018-03-15T19:52:57.654Z,48.07
2018-03-15T19:55:26.335Z,47.95
2018-03-15T19:57:55.796Z,48.33
2018-03-15T20:00:24.418Z,48.54
2018-03-15T20:02:53.872Z,49.39
2018-03-15T20:05:22.569Z,48.56
2018-03-15T20:07:51.368Z,47.58
2018-03-15T20:10:20.766Z,47.52
2018-03-15T20:12:49.802Z,47.04
2018-03-15T20:15:19.255Z,47.44
2018-03-15T20:17:47.940Z,48.27
2018-03-15T20:20:16.932Z,48.92
2018-03-15T20:22:51.215Z,48.54
2018-03-15T20:25:19.997Z,49.30
2018-03-15T20:27:55.152Z,49.65
2018-03-15T20:30:24.951Z,49.12
2018-03-15T20:32:59.171Z,48.35
2018-03-15T20:35:27.869Z,48.90
2018-03-15T20:37:56.434Z,47.83
2018-03-15T20:40:30.657Z,47.98
2018-03-15T20:42:59.441Z,48.71
2018-03-15T20:45:33.915Z,49.01
2018-03-15T20:48:08.926Z,48.08
2018-03-15T20:50:37.993Z,51.28
2018-03-15T20:53:07.475Z,49.92
2018-03-15T20:55:36.156Z,50.29
2018-03-15T20:58:05.040Z,51.73
2018-03-15T21:00:33.725Z,52.18
2018-03-15T21:03:02.392Z,51.43
2018-03-15T21:05:31.384Z,50.80
2018-03-15T21:08:00.089Z,50.06
2018-03-15T21:10:28.676Z,51.74
2018-03-15T21:12:57.575Z,51.47
2018-03-15T21:15:27.068Z,51.77
2018-03-15T21:17:56.493Z,50.87
2018-03-15T21:20:25.942Z,50.74
2018-03-15T21:22:54.630Z,50.12
2018-03-15T21:25:23.316Z,50.03
2018-03-15T21:27:52.191Z,50.21
2018-03-15T21:30:20.834Z,50.85
2018-03-15T21:32:50.298Z,49.90
2018-03-15T21:35:19.119Z,50.06
2018-03-15T21:37:48.587Z,49.45
2018-03-15T21:40:17.273Z,49.24
2018-03-15T21:42:46.202Z,49.12
2018-03-15T21:45:15.664Z,49.36
2018-03-15T21:47:44.313Z,48.70
2018-03-15T21:50:13.036Z,48.55
2018-03-15T21:52:41.674Z,48.39
2018-03-15T21:55:10.410Z,48.11
2018-03-15T21:57:39.400Z,48.06
2018-03-15T22:00:08.086Z,48.16
2018-03-15T22:02:36.673Z,49.54
2018-03-15T22:05:05.640Z,48.57
2018-03-15T22:07:34.351Z,48.42
2018-03-15T22:10:03.037Z,48.39
2018-03-15T22:12:31.967Z,49.11
2018-03-15T22:15:01.433Z,49.50
2018-03-15T22:17:30.017Z,49.19
2018-03-15T22:19:58.977Z,49.86
2018-03-15T22:22:27.617Z,49.55
2018-03-15T22:24:56.349Z,49.53
2018-03-15T22:27:25.143Z,49.20
2018-03-15T22:29:53.728Z,48.71
2018-03-15T22:32:22.309Z,49.09
2018-03-15T22:34:51.092Z,49.17
2018-03-15T22:37:19.685Z,49.06
2018-03-15T22:39:48.365Z,50.15
2018-03-15T22:42:17.358Z,50.03
2018-03-15T22:44:46.001Z,49.74
2018-03-15T22:47:14.700Z,50.02
2018-03-15T22:49:43.389Z,49.60
2018-03-15T22:52:12.880Z,50.07
2018-03-15T22:54:41.578Z,53.12
2018-03-15T22:57:10.363Z,55.54
2018-03-15T22:59:39.157Z,56.81
2018-03-15T23:02:07.720Z,56.99
2018-03-15T23:04:36.420Z,54.32
2018-03-15T23:07:05.104Z,52.87
2018-03-15T23:09:33.648Z,56.28
2018-03-15T23:12:02.623Z,57.08
2018-03-15T23:14:32.110Z,55.79
2018-03-15T23:17:00.780Z,55.01
2018-03-15T23:19:30.602Z,53.60
2018-03-15T23:22:00.063Z,52.54
2018-03-15T23:24:28.750Z,53.07
2018-03-15T23:26:57.580Z,53.70
2018-03-15T23:29:26.931Z,53.47
2018-03-15T23:31:55.566Z,53.57
2018-03-15T23:34:25.017Z,58.77
2018-03-15T23:36:53.698Z,57.25
2018-03-15T23:39:22.393Z,55.24
2018-03-15T23:41:51.280Z,56.75
2018-03-15T23:44:19.967Z,56.73
2018-03-15T23:46:48.598Z,56.29
2018-03-15T23:49:18.516Z,53.90
2018-03-15T23:51:47.977Z,54.33
2018-03-15T23:54:16.663Z,53.00
2018-03-15T23:56:45.495Z,53.83
2018-03-15T23:59:14.809Z,52.84
